Time;durP1;ratioP1;P1;durP2;ratioP2;P2;SDS_P1;SDS_P2;PMS_P1;PMS_P2;Temp;Humidity;BMP_temperature;BMP_pressure;BME280_temperature;BME280_humidity;BME280_pressure;Samples;Min_cycle;Max_cycle;Signal;HPM_P1;HPM_P2
2023/09/29 00:01:39;;;;;;;4.88;3.13;;;;;;;;;;5052367;28;20259;-70
2023/09/29 00:04:06;;;;;;;3.13;2.83;;;;;;;;;;5052424;28;20308;-70
2023/09/29 00:06:33;;;;;;;3.08;2.67;;;;;;;;;;5052212;28;20225;-70
2023/09/29 00:09:00;;;;;;;5.13;2.83;;;;;;;;;;5051978;28;20259;-70
2023/09/29 00:11:26;;;;;;;5.85;3.25;;;;;;;;;;5052106;28;20588;-70
2023/09/29 00:13:52;;;;;;;4.25;3.33;;;;;;;;;;5050657;28;20220;-70
2023/09/29 00:16:19;;;;;;;6.30;3.33;;;;;;;;;;5051934;28;20217;-70
2023/09/29 00:18:46;;;;;;;4.90;3.78;;;;;;;;;;5051764;28;20207;-70
2023/09/29 00:21:13;;;;;;;5.15;3.67;;;;;;;;;;5051917;28;20201;-70
2023/09/29 00:23:39;;;;;;;4.00;3.60;;;;;;;;;;5051655;28;20243;-70
2023/09/29 00:26:06;;;;;;;6.85;3.88;;;;;;;;;;5051977;28;20713;-70
2023/09/29 00:28:32;;;;;;;3.45;3.20;;;;;;;;;;5051443;28;20196;-70
2023/09/29 00:30:59;;;;;;;4.57;3.63;;;;;;;;;;5079582;22;20220;-71
2023/09/29 00:33:26;;;;;;;6.88;3.50;;;;;;;;;;5071875;28;20196;-71
2023/09/29 00:35:54;;;;;;;7.30;3.65;;;;;;;;;;5071531;28;20216;-71
2023/09/29 00:38:20;;;;;;;3.63;3.42;;;;;;;;;;5071341;28;20197;-71
2023/09/29 00:40:46;;;;;;;5.35;3.80;;;;;;;;;;5071832;28;20197;-71
2023/09/29 00:43:15;;;;;;;6.22;3.70;;;;;;;;;;5071874;28;20233;-71
2023/09/29 00:45:42;;;;;;;4.60;4.20;;;;;;;;;;5071402;28;20220;-71
2023/09/29 00:48:10;;;;;;;6.80;4.90;;;;;;;;;;5071401;28;20204;-71
2023/09/29 00:50:37;;;;;;;9.45;5.85;;;;;;;;;;5070049;28;20188;-71
2023/09/29 00:53:08;;;;;;;4.97;4.57;;;;;;;;;;5071374;28;20623;-71
2023/09/29 00:55:36;;;;;;;5.65;5.10;;;;;;;;;;5071266;28;20224;-71
2023/09/29 00:58:03;;;;;;;5.97;4.70;;;;;;;;;;5071163;28;20752;-71
2023/09/29 01:00:36;;;;;;;5.60;4.60;;;;;;;;;;5071640;28;20203;-71
2023/09/29 01:03:04;;;;;;;6.47;4.88;;;;;;;;;;5056043;28;20246;-71
2023/09/29 01:05:32;;;;;;;6.82;4.97;;;;;;;;;;5071201;28;20216;-71
2023/09/29 01:07:59;;;;;;;7.63;5.15;;;;;;;;;;5071429;28;20632;-71
2023/09/29 01:10:26;;;;;;;5.70;4.57;;;;;;;;;;5071523;28;20203;-71
2023/09/29 01:12:53;;;;;;;8.32;4.88;;;;;;;;;;5071287;28;20203;-71
2023/09/29 01:15:20;;;;;;;5.38;4.82;;;;;;;;;;5071063;28;20216;-71
2023/09/29 01:17:46;;;;;;;6.18;4.57;;;;;;;;;;5070958;28;20227;-71
2023/09/29 01:20:27;;;;;;;4.18;3.80;;;;;;;;;;5070982;28;20680;-71
2023/09/29 01:22:54;;;;;;;4.40;4.00;;;;;;;;;;5071029;28;20578;-71
2023/09/29 01:25:21;;;;;;;3.70;3.40;;;;;;;;;;5071165;28;20216;-71
2023/09/29 01:27:48;;;;;;;4.70;3.42;;;;;;;;;;5070806;28;20208;-71
2023/09/29 01:30:16;;;;;;;5.22;3.55;;;;;;;;;;5071147;28;20204;-71
2023/09/29 01:32:42;;;;;;;3.95;3.45;;;;;;;;;;5071063;28;20200;-71
2023/09/29 01:35:10;;;;;;;6.30;3.65;;;;;;;;;;5071001;28;20227;-71
2023/09/29 01:37:38;;;;;;;4.63;3.50;;;;;;;;;;5071162;28;20307;-71
2023/09/29 01:40:05;;;;;;;4.75;3.85;;;;;;;;;;5055263;28;20211;-71
2023/09/29 01:42:33;;;;;;;6.75;3.30;;;;;;;;;;5070974;28;20203;-71
2023/09/29 01:44:59;;;;;;;5.25;3.50;;;;;;;;;;5070574;28;20201;-71
2023/09/29 01:47:25;;;;;;;6.70;3.53;;;;;;;;;;5071084;28;20200;-71
2023/09/29 01:49:52;;;;;;;3.80;3.35;;;;;;;;;;5073049;28;20200;-71
2023/09/29 01:52:18;;;;;;;3.33;3.13;;;;;;;;;;5074684;28;20590;-71
2023/09/29 01:54:44;;;;;;;3.20;3.00;;;;;;;;;;5074597;28;20223;-71
2023/09/29 01:57:12;;;;;;;3.42;3.05;;;;;;;;;;5074594;28;20651;-70
2023/09/29 01:59:40;;;;;;;3.70;3.22;;;;;;;;;;5074441;28;20204;-71
2023/09/29 02:02:06;;;;;;;3.20;2.90;;;;;;;;;;5058926;28;20200;-71
2023/09/29 02:04:32;;;;;;;4.03;2.90;;;;;;;;;;5074568;28;20192;-71
2023/09/29 02:06:59;;;;;;;3.40;2.85;;;;;;;;;;5074425;28;20300;-71
2023/09/29 02:09:26;;;;;;;3.38;3.08;;;;;;;;;;5074343;28;20201;-71
2023/09/29 02:11:54;;;;;;;2.58;2.47;;;;;;;;;;5074382;28;20231;-71
2023/09/29 02:14:21;;;;;;;3.80;2.92;;;;;;;;;;5074235;28;20227;-71
2023/09/29 02:16:48;;;;;;;4.38;2.92;;;;;;;;;;5074165;28;20244;-71
2023/09/29 02:19:16;;;;;;;4.45;3.08;;;;;;;;;;5074377;28;20232;-71
2023/09/29 02:21:43;;;;;;;4.30;3.10;;;;;;;;;;5074308;28;20287;-71
2023/09/29 02:24:09;;;;;;;3.20;2.95;;;;;;;;;;5074325;28;20665;-71
2023/09/29 02:26:36;;;;;;;3.03;2.78;;;;;;;;;;5073996;28;20216;-71
2023/09/29 02:29:02;;;;;;;4.20;2.80;;;;;;;;;;5073850;28;20208;-70
2023/09/29 02:31:28;;;;;;;2.70;2.50;;;;;;;;;;5074086;28;20205;-70
2023/09/29 02:33:56;;;;;;;3.70;2.88;;;;;;;;;;5074041;28;20220;-70
2023/09/29 02:36:22;;;;;;;4.20;2.90;;;;;;;;;;5073791;28;20216;-70
2023/09/29 02:38:49;;;;;;;3.95;3.45;;;;;;;;;;5073789;28;20219;-70
2023/09/29 02:41:15;;;;;;;4.32;3.22;;;;;;;;;;5073836;28;20226;-70
2023/09/29 02:43:41;;;;;;;3.42;3.10;;;;;;;;;;5074116;28;20201;-70
2023/09/29 02:46:14;;;;;;;6.50;3.50;;;;;;;;;;5073736;28;20208;-70
2023/09/29 02:48:40;;;;;;;3.20;3.00;;;;;;;;;;5073798;28;20748;-70
2023/09/29 02:51:14;;;;;;;5.25;3.45;;;;;;;;;;5073656;28;20201;-71
2023/09/29 02:53:41;;;;;;;3.40;3.10;;;;;;;;;;5073803;28;20539;-71
2023/09/29 02:56:11;;;;;;;4.90;3.28;;;;;;;;;;5073557;28;20227;-71
2023/09/29 02:58:38;;;;;;;3.55;3.25;;;;;;;;;;5073677;28;20204;-70
2023/09/29 03:01:06;;;;;;;5.40;3.47;;;;;;;;;;5072169;28;20237;-70
2023/09/29 03:03:32;;;;;;;4.65;3.30;;;;;;;;;;5073601;28;20196;-70
2023/09/29 03:05:59;;;;;;;4.28;3.90;;;;;;;;;;5073321;28;20227;-70
2023/09/29 03:08:27;;;;;;;5.97;3.75;;;;;;;;;;5073171;28;20254;-70
2023/09/29 03:10:54;;;;;;;7.45;3.03;;;;;;;;;;5073211;28;20695;-70
2023/09/29 03:13:20;;;;;;;3.60;3.30;;;;;;;;;;5073467;28;20200;-70
2023/09/29 03:15:48;;;;;;;4.53;3.88;;;;;;;;;;5073208;28;20217;-70
2023/09/29 03:18:14;;;;;;;9.13;4.15;;;;;;;;;;5073034;28;20197;-70
2023/09/29 03:20:40;;;;;;;7.15;4.00;;;;;;;;;;5073139;28;20204;-70
2023/09/29 03:23:06;;;;;;;6.15;4.20;;;;;;;;;;5072881;28;20201;-70
2023/09/29 03:25:34;;;;;;;5.25;3.88;;;;;;;;;;5073198;28;20217;-70
2023/09/29 03:28:01;;;;;;;6.15;4.20;;;;;;;;;;5072772;28;20582;-70
2023/09/29 03:30:27;;;;;;;7.00;4.15;;;;;;;;;;5073058;28;20222;-71
2023/09/29 03:32:57;;;;;;;6.32;3.95;;;;;;;;;;5072838;28;20196;-70
2023/09/29 03:35:23;;;;;;;3.97;3.65;;;;;;;;;;5072923;28;20522;-70
2023/09/29 03:37:50;;;;;;;5.90;4.00;;;;;;;;;;5072707;28;20282;-70
2023/09/29 03:40:18;;;;;;;4.93;4.13;;;;;;;;;;5073045;28;20212;-70
2023/09/29 03:42:46;;;;;;;5.28;4.20;;;;;;;;;;5072923;28;20196;-70
2023/09/29 03:45:14;;;;;;;6.00;3.95;;;;;;;;;;5072368;28;20602;-71
2023/09/29 03:47:41;;;;;;;5.15;4.13;;;;;;;;;;5072423;28;20193;-71
2023/09/29 03:50:08;;;;;;;4.40;4.10;;;;;;;;;;5072628;28;20227;-70
2023/09/29 03:52:35;;;;;;;6.25;4.05;;;;;;;;;;5072808;28;20206;-70
2023/09/29 03:55:01;;;;;;;7.38;4.07;;;;;;;;;;5072278;28;20769;-70
2023/09/29 03:57:28;;;;;;;10.48;4.03;;;;;;;;;;5072565;28;20216;-70
2023/09/29 03:59:55;;;;;;;4.85;3.88;;;;;;;;;;5072264;28;20204;-70
2023/09/29 04:02:22;;;;;;;4.55;4.07;;;;;;;;;;5072212;28;20550;-70
2023/09/29 04:04:48;;;;;;;5.70;3.67;;;;;;;;;;5072160;28;20203;-71
2023/09/29 04:07:15;;;;;;;4.50;4.10;;;;;;;;;;5072268;28;20193;-71
2023/09/29 04:09:41;;;;;;;4.18;3.78;;;;;;;;;;5072018;28;20708;-71
2023/09/29 04:12:08;;;;;;;4.40;4.10;;;;;;;;;;5071874;28;20200;-71
2023/09/29 04:14:34;;;;;;;4.55;4.18;;;;;;;;;;5072280;28;20200;-71
2023/09/29 04:17:04;;;;;;;5.15;4.30;;;;;;;;;;5071777;28;20274;-70
2023/09/29 04:19:30;;;;;;;4.55;4.13;;;;;;;;;;5072063;28;20286;-70
2023/09/29 04:21:57;;;;;;;5.93;4.82;;;;;;;;;;5072033;28;20601;-70
2023/09/29 04:24:24;;;;;;;5.28;4.30;;;;;;;;;;5072117;28;20192;-69
2023/09/29 04:26:50;;;;;;;8.18;4.80;;;;;;;;;;5071988;28;20220;-69
2023/09/29 04:29:16;;;;;;;6.35;4.63;;;;;;;;;;5071563;28;20204;-70
2023/09/29 04:31:42;;;;;;;8.27;4.78;;;;;;;;;;5071678;28;20586;-70
2023/09/29 04:34:11;;;;;;;5.18;4.30;;;;;;;;;;5071960;28;20204;-70
2023/09/29 04:36:37;;;;;;;4.20;3.83;;;;;;;;;;5071848;28;20252;-71
2023/09/29 04:39:03;;;;;;;4.57;3.30;;;;;;;;;;5071494;28;20639;-70
2023/09/29 04:41:30;;;;;;;4.88;3.67;;;;;;;;;;5071491;28;20200;-70
2023/09/29 04:43:56;;;;;;;3.47;3.17;;;;;;;;;;5071583;28;20204;-70
2023/09/29 04:46:23;;;;;;;3.40;3.20;;;;;;;;;;5071526;28;20220;-70
2023/09/29 04:48:52;;;;;;;7.45;3.53;;;;;;;;;;5071572;28;20250;-70
2023/09/29 04:51:21;;;;;;;3.45;3.15;;;;;;;;;;5071379;28;20203;-70
2023/09/29 04:53:47;;;;;;;5.82;3.78;;;;;;;;;;5071398;28;20200;-70
2023/09/29 04:56:13;;;;;;;4.45;3.03;;;;;;;;;;5071179;28;20230;-70
2023/09/29 04:58:39;;;;;;;5.18;3.28;;;;;;;;;;5070700;28;20219;-61
2023/09/29 05:01:06;;;;;;;3.72;3.35;;;;;;;;;;5070941;28;20685;-61
2023/09/29 05:03:32;;;;;;;6.00;3.40;;;;;;;;;;5071210;28;20246;-61
2023/09/29 05:05:58;;;;;;;3.75;3.38;;;;;;;;;;5070944;28;20223;-61
2023/09/29 05:08:26;;;;;;;4.72;3.40;;;;;;;;;;5071110;28;20215;-61
2023/09/29 05:10:53;;;;;;;7.22;3.83;;;;;;;;;;5071442;28;20197;-61
2023/09/29 05:13:19;;;;;;;5.07;3.67;;;;;;;;;;5071182;28;20208;-61
2023/09/29 05:15:45;;;;;;;4.30;3.95;;;;;;;;;;5071071;28;20216;-62
2023/09/29 05:18:11;;;;;;;4.50;4.10;;;;;;;;;;5070702;28;20227;-62
2023/09/29 05:20:38;;;;;;;6.07;4.20;;;;;;;;;;5071251;28;20208;-62
2023/09/29 05:23:04;;;;;;;8.02;4.20;;;;;;;;;;5071095;28;20216;-62
2023/09/29 05:25:32;;;;;;;7.38;4.50;;;;;;;;;;5074419;28;20700;-62
2023/09/29 05:27:58;;;;;;;9.60;4.28;;;;;;;;;;5074850;28;20222;-62
2023/09/29 05:30:25;;;;;;;9.40;4.30;;;;;;;;;;5058770;28;20209;-62
2023/09/29 05:32:50;;;;;;;5.55;4.63;;;;;;;;;;5075472;28;20232;-63
2023/09/29 05:35:16;;;;;;;15.00;4.60;;;;;;;;;;5075134;28;20256;-62
2023/09/29 05:37:43;;;;;;;13.40;4.60;;;;;;;;;;5074880;28;20247;-62
2023/09/29 05:40:09;;;;;;;8.10;4.18;;;;;;;;;;5074973;28;20204;-62
2023/09/29 05:42:37;;;;;;;8.38;4.03;;;;;;;;;;5074782;28;20204;-62
2023/09/29 05:45:04;;;;;;;12.70;5.25;;;;;;;;;;5074295;28;20720;-62
2023/09/29 05:47:30;;;;;;;10.07;4.60;;;;;;;;;;5075076;28;20219;-62
2023/09/29 05:49:56;;;;;;;9.75;4.00;;;;;;;;;;5074646;28;20207;-62
2023/09/29 05:52:23;;;;;;;11.30;4.90;;;;;;;;;;5074734;28;20204;-62
2023/09/29 05:54:50;;;;;;;13.00;4.97;;;;;;;;;;5074626;28;20219;-61
2023/09/29 05:57:16;;;;;;;12.63;5.47;;;;;;;;;;5074272;28;20627;-61
2023/09/29 05:59:44;;;;;;;7.75;4.47;;;;;;;;;;5074571;28;20203;-61
2023/09/29 06:02:10;;;;;;;10.90;4.97;;;;;;;;;;5074523;28;20208;-62
2023/09/29 06:04:36;;;;;;;18.85;6.47;;;;;;;;;;5075006;28;20192;-61
2023/09/29 06:07:03;;;;;;;20.38;6.82;;;;;;;;;;5074146;28;20697;-62
2023/09/29 06:09:30;;;;;;;9.05;5.93;;;;;;;;;;5073954;28;20224;-62
2023/09/29 06:11:56;;;;;;;18.33;6.45;;;;;;;;;;5074369;28;20204;-62
2023/09/29 06:14:23;;;;;;;21.55;6.47;;;;;;;;;;5074090;28;20692;-62
2023/09/29 06:16:50;;;;;;;15.35;6.40;;;;;;;;;;5073868;28;20696;-62
2023/09/29 06:19:16;;;;;;;24.15;6.70;;;;;;;;;;5058991;28;20210;-65
2023/09/29 06:21:44;;;;;;;11.32;5.88;;;;;;;;;;5056731;28;20212;-65
2023/09/29 06:24:10;;;;;;;19.30;6.10;;;;;;;;;;5068108;28;20223;-65
2023/09/29 06:26:36;;;;;;;10.13;5.65;;;;;;;;;;5062679;28;20704;-65
2023/09/29 06:29:04;;;;;;;11.95;6.50;;;;;;;;;;5068242;28;20200;-64
2023/09/29 06:31:31;;;;;;;11.55;5.95;;;;;;;;;;5052126;28;20209;-64
2023/09/29 06:33:58;;;;;;;8.73;5.65;;;;;;;;;;5068432;28;20208;-64
2023/09/29 06:36:25;;;;;;;10.02;5.78;;;;;;;;;;5059371;28;20603;-64
2023/09/29 06:38:51;;;;;;;13.07;5.32;;;;;;;;;;5051000;28;20308;-64
2023/09/29 06:41:17;;;;;;;10.50;5.07;;;;;;;;;;5052074;28;20213;-65
2023/09/29 06:43:45;;;;;;;8.77;4.70;;;;;;;;;;5056258;28;20204;-65
2023/09/29 06:46:12;;;;;;;11.70;4.97;;;;;;;;;;5056335;28;20766;-65
2023/09/29 06:48:38;;;;;;;6.45;4.50;;;;;;;;;;5066164;28;20583;-65
2023/09/29 06:51:06;;;;;;;10.75;4.80;;;;;;;;;;5057850;28;20236;-65
2023/09/29 06:53:32;;;;;;;7.47;5.07;;;;;;;;;;5062261;28;20611;-63
2023/09/29 06:55:58;;;;;;;9.98;4.90;;;;;;;;;;5066500;28;20224;-65
2023/09/29 06:58:25;;;;;;;6.05;4.80;;;;;;;;;;5059470;28;20224;-65
2023/09/29 07:00:51;;;;;;;7.80;4.63;;;;;;;;;;5064919;28;20208;-63
2023/09/29 07:03:18;;;;;;;12.80;4.80;;;;;;;;;;5064146;28;20216;-64
2023/09/29 07:05:46;;;;;;;13.00;5.00;;;;;;;;;;5067904;28;20645;-63
2023/09/29 07:08:13;;;;;;;7.45;5.13;;;;;;;;;;5058326;28;20205;-63
2023/09/29 07:10:41;;;;;;;11.77;4.95;;;;;;;;;;5067477;28;20200;-63
2023/09/29 07:13:08;;;;;;;5.78;5.15;;;;;;;;;;5067511;28;20217;-63
2023/09/29 07:15:34;;;;;;;6.28;5.00;;;;;;;;;;5051471;28;20251;-63
2023/09/29 07:18:01;;;;;;;6.72;5.13;;;;;;;;;;5052697;28;20229;-64
2023/09/29 07:20:27;;;;;;;8.93;5.15;;;;;;;;;;5055348;28;20495;-64
2023/09/29 07:22:53;;;;;;;6.80;5.40;;;;;;;;;;5057448;28;20636;-64
2023/09/29 07:25:22;;;;;;;6.60;5.20;;;;;;;;;;5051610;28;20233;-64
2023/09/29 07:27:48;;;;;;;11.40;5.32;;;;;;;;;;5064541;28;20204;-64
2023/09/29 07:30:15;;;;;;;6.97;4.75;;;;;;;;;;5059953;28;20243;-63
2023/09/29 07:32:42;;;;;;;10.82;4.78;;;;;;;;;;5056665;28;21346;-64
2023/09/29 07:35:08;;;;;;;8.48;4.75;;;;;;;;;;5058366;28;20725;-65
2023/09/29 07:37:35;;;;;;;7.28;4.95;;;;;;;;;;5060669;28;20759;-65
2023/09/29 07:40:01;;;;;;;5.65;4.82;;;;;;;;;;5056336;28;20209;-65
2023/09/29 07:42:29;;;;;;;9.27;4.90;;;;;;;;;;5057103;28;20209;-64
2023/09/29 07:44:55;;;;;;;5.10;4.60;;;;;;;;;;5056204;28;20212;-62
2023/09/29 07:47:21;;;;;;;6.78;4.45;;;;;;;;;;5059645;28;20216;-62
2023/09/29 07:49:48;;;;;;;7.43;5.10;;;;;;;;;;5058850;28;20216;-64
2023/09/29 07:52:14;;;;;;;12.07;5.10;;;;;;;;;;5062662;28;20519;-64
2023/09/29 07:54:40;;;;;;;9.32;4.82;;;;;;;;;;5055568;28;20208;-63
2023/09/29 07:57:07;;;;;;;6.65;4.72;;;;;;;;;;5061015;28;21632;-64
2023/09/29 07:59:34;;;;;;;5.15;4.65;;;;;;;;;;5054375;28;20263;-64
2023/09/29 08:02:00;;;;;;;8.23;4.70;;;;;;;;;;5048235;28;20611;-65
2023/09/29 08:04:27;;;;;;;7.22;3.90;;;;;;;;;;5052916;28;20220;-64
2023/09/29 08:06:53;;;;;;;8.60;4.63;;;;;;;;;;5062775;28;20232;-65
2023/09/29 08:09:19;;;;;;;7.50;4.90;;;;;;;;;;5049750;28;20204;-66
2023/09/29 08:11:45;;;;;;;6.57;4.00;;;;;;;;;;5045986;28;20210;-67
2023/09/29 08:14:12;;;;;;;5.18;4.68;;;;;;;;;;5044992;28;20208;-65
2023/09/29 08:16:41;;;;;;;7.47;4.20;;;;;;;;;;5060524;28;20759;-65
2023/09/29 08:19:07;;;;;;;5.38;3.97;;;;;;;;;;5057000;28;20232;-65
2023/09/29 08:21:33;;;;;;;5.40;3.90;;;;;;;;;;5055199;28;20208;-66
2023/09/29 08:24:02;;;;;;;4.20;3.80;;;;;;;;;;5048239;28;20213;-64
2023/09/29 08:26:29;;;;;;;8.13;4.47;;;;;;;;;;5056304;28;20239;-65
2023/09/29 08:28:56;;;;;;;5.05;4.38;;;;;;;;;;5053895;28;20205;-65
2023/09/29 08:31:23;;;;;;;8.32;4.20;;;;;;;;;;5046569;28;20677;-65
2023/09/29 08:33:50;;;;;;;7.07;4.32;;;;;;;;;;5054492;28;20213;-65
2023/09/29 08:36:17;;;;;;;8.57;4.10;;;;;;;;;;5063111;28;20220;-66
2023/09/29 08:38:43;;;;;;;6.10;3.80;;;;;;;;;;5044813;28;20216;-64
2023/09/29 08:41:09;;;;;;;6.20;3.85;;;;;;;;;;5051044;28;20218;-66
2023/09/29 08:43:38;;;;;;;8.48;4.25;;;;;;;;;;5058086;28;20213;-64
2023/09/29 08:46:04;;;;;;;7.15;4.00;;;;;;;;;;5046449;28;20302;-65
2023/09/29 08:48:32;;;;;;;9.10;4.45;;;;;;;;;;5058391;28;20205;-64
2023/09/29 08:51:01;;;;;;;10.40;3.90;;;;;;;;;;5061789;28;20214;-66
2023/09/29 08:53:28;;;;;;;8.73;3.83;;;;;;;;;;5058117;28;20220;-67
2023/09/29 08:55:55;;;;;;;9.80;4.38;;;;;;;;;;5057078;28;20225;-64
2023/09/29 08:58:23;;;;;;;8.30;3.80;;;;;;;;;;5062449;28;20307;-65
2023/09/29 09:00:49;;;;;;;8.55;4.22;;;;;;;;;;5062005;28;20232;-65
2023/09/29 09:03:15;;;;;;;9.25;4.35;;;;;;;;;;5048824;28;20209;-65
2023/09/29 09:05:42;;;;;;;6.05;3.38;;;;;;;;;;5056008;28;20231;-66
2023/09/29 09:08:09;;;;;;;5.38;3.67;;;;;;;;;;5063138;28;20208;-63
2023/09/29 09:10:36;;;;;;;8.38;3.65;;;;;;;;;;5061727;28;20213;-61
2023/09/29 09:13:03;;;;;;;9.05;3.95;;;;;;;;;;5057987;28;20212;-63
2023/09/29 09:15:29;;;;;;;4.78;3.88;;;;;;;;;;5056890;28;20231;-65
2023/09/29 09:17:56;;;;;;;4.90;3.50;;;;;;;;;;5055215;28;20209;-64
2023/09/29 09:20:23;;;;;;;11.23;4.78;;;;;;;;;;5057139;28;20307;-64
2023/09/29 09:22:57;;;;;;;7.47;3.85;;;;;;;;;;5057970;28;20216;-66
2023/09/29 09:25:34;;;;;;;7.85;3.53;;;;;;;;;;5057430;28;20302;-64
2023/09/29 09:28:01;;;;;;;7.20;3.92;;;;;;;;;;5063502;28;20326;-65
2023/09/29 09:30:27;;;;;;;6.93;3.78;;;;;;;;;;5055764;28;20240;-66
2023/09/29 09:32:54;;;;;;;8.13;3.63;;;;;;;;;;5049626;28;20211;-65
2023/09/29 09:35:24;;;;;;;5.55;3.80;;;;;;;;;;5059890;28;20224;-64
2023/09/29 09:37:51;;;;;;;9.40;4.00;;;;;;;;;;5042488;28;20223;-65
2023/09/29 09:40:18;;;;;;;10.57;4.45;;;;;;;;;;5052544;28;20778;-64
2023/09/29 09:42:46;;;;;;;7.00;4.15;;;;;;;;;;5055303;28;20520;-66
2023/09/29 09:45:13;;;;;;;11.02;3.90;;;;;;;;;;5057168;28;20223;-66
2023/09/29 09:47:40;;;;;;;8.48;3.70;;;;;;;;;;5051691;28;20212;-65
2023/09/29 09:50:10;;;;;;;5.80;3.40;;;;;;;;;;5057997;28;20695;-64
2023/09/29 09:52:36;;;;;;;7.50;3.65;;;;;;;;;;5060522;28;20210;-65
2023/09/29 09:55:05;;;;;;;6.70;3.60;;;;;;;;;;5056803;28;20225;-66
2023/09/29 09:57:33;;;;;;;6.25;3.70;;;;;;;;;;5053319;28;20208;-64
2023/09/29 10:00:06;;;;;;;7.63;3.50;;;;;;;;;;5054241;28;20255;-65
2023/09/29 10:02:33;;;;;;;5.82;3.03;;;;;;;;;;5044310;28;20589;-65
2023/09/29 10:05:00;;;;;;;5.70;3.45;;;;;;;;;;5061376;28;20212;-65
2023/09/29 10:07:26;;;;;;;4.25;3.28;;;;;;;;;;5060322;28;20216;-64
2023/09/29 10:09:52;;;;;;;6.40;3.35;;;;;;;;;;5061172;28;20708;-64
2023/09/29 10:12:23;;;;;;;4.85;3.63;;;;;;;;;;5062918;28;20600;-63
2023/09/29 10:14:49;;;;;;;7.22;3.40;;;;;;;;;;5054020;28;20246;-64
2023/09/29 10:17:17;;;;;;;14.13;3.33;;;;;;;;;;5055988;28;20213;-63
2023/09/29 10:19:45;;;;;;;13.43;3.30;;;;;;;;;;5057034;28;20739;-63
2023/09/29 10:22:21;;;;;;;10.80;3.45;;;;;;;;;;5067786;28;20262;-63
2023/09/29 10:24:48;;;;;;;7.80;3.20;;;;;;;;;;5062262;28;22669;-63
2023/09/29 10:27:14;;;;;;;7.97;2.75;;;;;;;;;;5062121;28;20214;-63
2023/09/29 10:29:40;;;;;;;5.25;2.70;;;;;;;;;;5059584;28;20231;-64
2023/09/29 10:32:10;;;;;;;5.75;2.90;;;;;;;;;;5050883;28;20649;-64
2023/09/29 10:34:38;;;;;;;4.50;3.30;;;;;;;;;;5062115;28;20606;-64
2023/09/29 10:37:04;;;;;;;6.88;3.10;;;;;;;;;;5065811;28;20230;-64
2023/09/29 10:39:31;;;;;;;7.43;3.10;;;;;;;;;;5061026;28;20678;-65
2023/09/29 10:41:58;;;;;;;4.63;3.05;;;;;;;;;;5057184;28;20692;-64
2023/09/29 10:44:27;;;;;;;6.35;3.15;;;;;;;;;;5067707;28;20691;-64
2023/09/29 10:46:53;;;;;;;5.88;3.20;;;;;;;;;;5057367;28;20674;-64
2023/09/29 10:49:19;;;;;;;3.50;2.53;;;;;;;;;;5058518;28;20204;-64
2023/09/29 10:51:47;;;;;;;3.75;3.28;;;;;;;;;;5064359;28;20201;-64
2023/09/29 10:54:13;;;;;;;4.97;2.75;;;;;;;;;;5065487;28;20208;-64
2023/09/29 10:56:39;;;;;;;4.53;2.67;;;;;;;;;;5050978;28;20713;-64
2023/09/29 10:59:07;;;;;;;5.20;2.60;;;;;;;;;;5066744;28;20592;-65
2023/09/29 11:01:34;;;;;;;2.30;2.20;;;;;;;;;;5055919;28;20289;-64
2023/09/29 11:04:00;;;;;;;3.47;2.10;;;;;;;;;;5051039;28;20200;-65
2023/09/29 11:06:27;;;;;;;4.82;2.20;;;;;;;;;;5052418;28;20294;-65
2023/09/29 11:08:56;;;;;;;3.67;1.98;;;;;;;;;;5065964;28;20207;-65
2023/09/29 11:11:25;;;;;;;2.70;2.00;;;;;;;;;;5055488;28;20204;-66
2023/09/29 11:13:54;;;;;;;4.13;2.40;;;;;;;;;;5057360;28;20300;-66
2023/09/29 11:16:24;;;;;;;6.88;2.20;;;;;;;;;;5060587;28;21349;-66
2023/09/29 11:18:50;;;;;;;3.35;2.58;;;;;;;;;;5051496;28;20797;-65
2023/09/29 11:21:19;;;;;;;3.10;2.10;;;;;;;;;;5056905;28;20201;-65
2023/09/29 11:23:47;;;;;;;2.53;2.30;;;;;;;;;;5054414;28;20209;-65
2023/09/29 11:26:15;;;;;;;2.58;2.30;;;;;;;;;;5054644;28;20751;-66
2023/09/29 11:28:42;;;;;;;5.18;2.20;;;;;;;;;;5049154;28;20326;-67
2023/09/29 11:31:12;;;;;;;3.75;1.88;;;;;;;;;;5057870;28;20587;-65
2023/09/29 11:33:39;;;;;;;2.42;2.33;;;;;;;;;;5054207;28;20291;-65
2023/09/29 11:36:11;;;;;;;3.92;2.28;;;;;;;;;;5051971;28;20224;-65
2023/09/29 11:38:37;;;;;;;5.47;2.35;;;;;;;;;;5053172;28;20215;-65
2023/09/29 11:41:04;;;;;;;3.83;2.22;;;;;;;;;;5054957;28;20207;-65
2023/09/29 11:43:32;;;;;;;5.85;2.38;;;;;;;;;;5055967;28;20223;-64
2023/09/29 11:45:59;;;;;;;6.78;2.58;;;;;;;;;;5058422;28;20215;-66
2023/09/29 11:48:25;;;;;;;2.63;2.40;;;;;;;;;;5053353;28;20215;-65
2023/09/29 11:50:53;;;;;;;2.35;2.25;;;;;;;;;;5062478;28;20215;-64
2023/09/29 11:53:19;;;;;;;3.88;2.42;;;;;;;;;;5051126;28;20233;-64
2023/09/29 11:55:46;;;;;;;2.58;2.38;;;;;;;;;;5052364;28;20552;-64
2023/09/29 11:58:12;;;;;;;4.05;2.67;;;;;;;;;;5049870;28;20212;-66
2023/09/29 12:00:41;;;;;;;2.65;2.25;;;;;;;;;;5052439;28;20220;-65
2023/09/29 12:03:08;;;;;;;2.85;2.65;;;;;;;;;;5057227;28;20211;-65
2023/09/29 12:05:34;;;;;;;7.22;2.40;;;;;;;;;;5050406;28;20217;-64
2023/09/29 12:08:02;;;;;;;4.07;2.45;;;;;;;;;;5060402;28;20231;-65
2023/09/29 12:10:29;;;;;;;5.45;2.20;;;;;;;;;;5056354;28;20192;-65
2023/09/29 12:12:55;;;;;;;7.88;3.08;;;;;;;;;;5057901;28;20270;-65
2023/09/29 12:15:21;;;;;;;5.82;2.42;;;;;;;;;;5051460;28;20227;-65
2023/09/29 12:17:50;;;;;;;2.25;2.13;;;;;;;;;;5051715;28;20576;-65
2023/09/29 12:20:16;;;;;;;4.05;2.22;;;;;;;;;;5046814;28;20303;-64
2023/09/29 12:22:45;;;;;;;3.08;2.33;;;;;;;;;;5053376;28;20207;-65
2023/09/29 12:25:12;;;;;;;4.35;2.50;;;;;;;;;;5055337;28;20496;-65
2023/09/29 12:27:38;;;;;;;2.50;2.30;;;;;;;;;;5049025;28;20204;-64
2023/09/29 12:30:08;;;;;;;2.72;2.38;;;;;;;;;;5055282;28;20285;-65
2023/09/29 12:32:34;;;;;;;7.53;2.63;;;;;;;;;;5053533;28;20204;-64
2023/09/29 12:35:03;;;;;;;2.85;2.03;;;;;;;;;;5052746;28;20743;-65
2023/09/29 12:37:29;;;;;;;3.83;2.13;;;;;;;;;;5053753;28;20577;-65
2023/09/29 12:39:56;;;;;;;5.40;1.98;;;;;;;;;;5054608;28;20216;-65
2023/09/29 12:42:22;;;;;;;3.22;2.35;;;;;;;;;;5055120;28;20687;-66
2023/09/29 12:44:49;;;;;;;2.30;2.10;;;;;;;;;;5049363;28;20211;-65
2023/09/29 12:47:15;;;;;;;3.20;2.28;;;;;;;;;;5060589;28;20219;-66
2023/09/29 12:49:41;;;;;;;4.53;2.35;;;;;;;;;;5048556;28;20737;-66
2023/09/29 12:52:09;;;;;;;2.88;2.20;;;;;;;;;;5050817;28;20199;-65
2023/09/29 12:54:38;;;;;;;2.50;2.30;;;;;;;;;;5060396;28;20207;-65
2023/09/29 12:57:04;;;;;;;4.05;2.58;;;;;;;;;;5048631;28;20219;-64
2023/09/29 12:59:32;;;;;;;4.97;2.35;;;;;;;;;;5059874;28;20570;-65
2023/09/29 13:01:59;;;;;;;2.45;2.25;;;;;;;;;;5054046;28;20618;-66
2023/09/29 13:04:28;;;;;;;5.68;2.10;;;;;;;;;;5055260;28;20203;-65
2023/09/29 13:06:55;;;;;;;2.83;2.00;;;;;;;;;;5054341;28;20231;-65
2023/09/29 13:09:22;;;;;;;6.03;1.90;;;;;;;;;;5060072;28;20253;-67
2023/09/29 13:11:50;;;;;;;2.92;2.20;;;;;;;;;;5053606;28;20283;-68
2023/09/29 13:14:16;;;;;;;2.05;1.95;;;;;;;;;;5051175;28;20698;-67
2023/09/29 13:16:43;;;;;;;4.38;2.35;;;;;;;;;;5054172;28;20226;-66
2023/09/29 13:19:09;;;;;;;3.28;2.58;;;;;;;;;;5051885;28;20211;-66
2023/09/29 13:21:35;;;;;;;4.53;2.28;;;;;;;;;;5051184;28;20211;-66
2023/09/29 13:24:02;;;;;;;3.03;2.05;;;;;;;;;;5058894;28;20213;-66
2023/09/29 13:26:30;;;;;;;6.43;1.67;;;;;;;;;;5057426;28;20256;-66
2023/09/29 13:28:56;;;;;;;4.43;1.65;;;;;;;;;;5053388;28;20212;-66
2023/09/29 13:31:22;;;;;;;2.88;1.85;;;;;;;;;;5059052;28;20204;-66
2023/09/29 13:33:50;;;;;;;2.38;1.92;;;;;;;;;;5048692;28;20701;-65
2023/09/29 13:36:17;;;;;;;4.25;2.33;;;;;;;;;;5054606;28;20659;-65
2023/09/29 13:38:43;;;;;;;2.05;1.95;;;;;;;;;;5054032;28;20208;-66
2023/09/29 13:41:10;;;;;;;1.90;1.80;;;;;;;;;;5059554;28;20216;-65
2023/09/29 13:43:39;;;;;;;4.65;2.13;;;;;;;;;;5056813;28;20616;-65
2023/09/29 13:46:05;;;;;;;4.47;2.30;;;;;;;;;;5062100;28;20263;-65
2023/09/29 13:48:32;;;;;;;5.97;2.22;;;;;;;;;;5061466;28;20696;-64
2023/09/29 13:51:03;;;;;;;4.10;2.20;;;;;;;;;;5051801;28;20236;-65
2023/09/29 13:53:29;;;;;;;2.42;2.20;;;;;;;;;;5061795;28;20232;-65
2023/09/29 13:55:56;;;;;;;2.65;2.42;;;;;;;;;;5059381;28;20228;-65
2023/09/29 13:58:24;;;;;;;2.70;2.53;;;;;;;;;;5057145;28;20291;-64
2023/09/29 14:00:52;;;;;;;2.85;2.03;;;;;;;;;;5057288;28;20220;-65
2023/09/29 14:03:18;;;;;;;2.45;1.70;;;;;;;;;;5057897;28;20208;-65
2023/09/29 14:05:44;;;;;;;3.03;2.10;;;;;;;;;;5052312;28;20246;-64
2023/09/29 14:08:11;;;;;;;7.82;1.77;;;;;;;;;;5060940;28;20687;-64
2023/09/29 14:10:37;;;;;;;2.22;2.05;;;;;;;;;;5066789;28;20210;-65
2023/09/29 14:13:04;;;;;;;2.00;1.90;;;;;;;;;;5063925;28;20304;-65
2023/09/29 14:15:32;;;;;;;4.68;2.28;;;;;;;;;;5060182;28;20220;-65
2023/09/29 14:18:00;;;;;;;3.55;2.22;;;;;;;;;;5059366;28;20216;-64
2023/09/29 14:20:28;;;;;;;2.10;2.00;;;;;;;;;;5055016;28;20669;-64
2023/09/29 14:22:57;;;;;;;2.50;2.20;;;;;;;;;;5067419;28;20246;-64
2023/09/29 14:25:23;;;;;;;6.75;2.20;;;;;;;;;;5067389;28;20220;-65
2023/09/29 14:27:49;;;;;;;3.83;2.20;;;;;;;;;;5059854;28;20204;-64
2023/09/29 14:30:16;;;;;;;2.20;2.00;;;;;;;;;;5063819;28;20282;-64
2023/09/29 14:32:42;;;;;;;4.32;2.30;;;;;;;;;;5047987;28;20216;-63
2023/09/29 14:35:11;;;;;;;2.60;1.92;;;;;;;;;;5062453;28;20235;-64
2023/09/29 14:37:38;;;;;;;3.30;2.08;;;;;;;;;;5047554;28;20696;-66
2023/09/29 14:40:04;;;;;;;2.67;2.47;;;;;;;;;;5057623;28;20215;-65